Time;durP1;ratioP1;P1;durP2;ratioP2;P2;SDS_P1;SDS_P2;PMS_P1;PMS_P2;Temp;Humidity;BMP_temperature;BMP_pressure;BME280_temperature;BME280_humidity;BME280_pressure;Samples;Min_cycle;Max_cycle;Signal;HPM_P1;HPM_P2
2022/01/27 00:02:08;;;;;;;44.88;24.15;;;2.10;99.90;;;;;;5012630;28;20284;-87
2022/01/27 00:05:06;;;;;;;40.63;22.67;;;2.20;99.90;;;;;;5013744;28;20279;-88
2022/01/27 00:08:09;;;;;;;42.60;24.45;;;2.10;99.90;;;;;;5009012;28;20194;-88
2022/01/27 00:10:58;;;;;;;42.00;23.75;;;2.10;99.90;;;;;;5002401;28;20206;-87
2022/01/27 00:13:47;;;;;;;47.60;24.65;;;2.00;99.90;;;;;;5006804;28;20288;-87
2022/01/27 00:16:39;;;;;;;37.05;21.88;;;2.00;99.90;;;;;;5004719;28;20313;-87
2022/01/27 00:19:25;;;;;;;52.25;27.30;;;2.00;99.90;;;;;;5007643;28;20206;-87
2022/01/27 00:22:11;;;;;;;40.92;25.05;;;2.10;99.90;;;;;;5002446;28;20239;-87
2022/01/27 00:24:58;;;;;;;43.63;25.65;;;2.10;99.90;;;;;;5011438;28;20210;-87
2022/01/27 00:27:44;;;;;;;46.60;24.80;;;2.10;99.90;;;;;;5011160;28;20236;-87
2022/01/27 00:30:30;;;;;;;42.75;23.30;;;2.10;99.90;;;;;;5005629;28;20194;-87
2022/01/27 00:33:15;;;;;;;45.35;24.77;;;2.10;99.90;;;;;;5013425;28;20230;-87
2022/01/27 00:36:01;;;;;;;50.97;26.05;;;2.00;99.90;;;;;;5001698;28;20683;-87
2022/01/27 00:38:53;;;;;;;49.03;26.08;;;2.00;99.90;;;;;;5004011;28;20206;-88
2022/01/27 00:41:40;;;;;;;45.75;25.90;;;1.90;99.90;;;;;;5005342;28;20191;-87
2022/01/27 00:44:25;;;;;;;45.10;24.20;;;2.00;99.90;;;;;;5023037;28;20225;-88
2022/01/27 00:47:11;;;;;;;44.03;26.20;;;2.10;99.90;;;;;;5002085;28;20206;-87
2022/01/27 00:49:57;;;;;;;43.60;25.95;;;1.90;99.90;;;;;;5001407;28;20198;-88
2022/01/27 00:52:47;;;;;;;44.15;25.48;;;1.80;99.90;;;;;;5002458;28;20292;-87
2022/01/27 00:55:39;;;;;;;45.38;26.42;;;1.90;99.90;;;;;;5003660;28;20242;-88
2022/01/27 00:58:41;;;;;;;50.88;27.17;;;1.80;99.90;;;;;;5022170;28;20383;-87
2022/01/27 01:01:33;;;;;;;47.50;27.67;;;1.80;99.90;;;;;;5003466;28;20206;-87
2022/01/27 01:04:25;;;;;;;46.13;26.75;;;1.80;99.90;;;;;;5007006;28;20229;-87
2022/01/27 01:07:12;;;;;;;52.25;26.08;;;1.90;99.90;;;;;;5007666;28;20559;-87
2022/01/27 01:16:09;;;;;;;49.38;26.30;;;1.90;99.90;;;;;;5006319;28;20191;-88
2022/01/27 01:19:04;;;;;;;48.60;25.08;;;1.90;99.90;;;;;;5008087;28;20203;-87
2022/01/27 01:22:08;;;;;;;46.70;25.50;;;2.00;99.90;;;;;;5003980;28;20198;-87
2022/01/27 01:31:12;;;;;;;48.80;26.35;;;2.10;99.90;;;;;;5006408;28;20233;-88
2022/01/27 01:34:12;;;;;;;48.72;26.17;;;2.00;99.90;;;;;;5006434;28;20309;-87
2022/01/27 01:37:02;;;;;;;45.70;25.15;;;2.10;99.90;;;;;;5009190;28;20203;-87
2022/01/27 01:39:48;;;;;;;53.78;25.00;;;2.10;99.90;;;;;;5011631;28;20703;-88
2022/01/27 01:42:34;;;;;;;42.83;24.88;;;2.10;99.90;;;;;;5014338;28;20229;-87
2022/01/27 01:45:22;;;;;;;43.25;26.42;;;2.20;99.90;;;;;;5084383;22;20232;-73
2022/01/27 01:48:07;;;;;;;48.20;26.30;;;2.10;99.90;;;;;;5048768;28;20204;-73
2022/01/27 01:50:55;;;;;;;43.10;24.50;;;2.10;99.90;;;;;;5060307;28;20755;-73
2022/01/27 01:53:40;;;;;;;43.85;22.00;;;2.20;99.90;;;;;;5054589;28;20201;-73
2022/01/27 01:56:26;;;;;;;41.35;23.75;;;2.20;99.90;;;;;;5050118;28;20716;-73
2022/01/27 01:59:13;;;;;;;39.08;21.13;;;2.20;99.90;;;;;;5053319;28;20212;-73
2022/01/27 02:01:58;;;;;;;41.65;23.27;;;2.10;99.90;;;;;;5053362;28;20204;-73
2022/01/27 02:04:45;;;;;;;39.42;21.95;;;2.20;99.90;;;;;;5053412;28;20221;-73
2022/01/27 02:07:40;;;;;;;39.03;21.15;;;2.30;99.90;;;;;;5053283;28;20560;-74
2022/01/27 02:10:41;;;;;;;44.08;24.00;;;2.30;99.90;;;;;;5056328;28;20246;-73
2022/01/27 02:19:37;;;;;;;42.33;22.58;;;2.00;99.90;;;;;;5053212;28;20465;-74
2022/01/27 02:22:24;;;;;;;37.35;20.58;;;1.90;99.90;;;;;;5050169;28;20208;-74
2022/01/27 02:25:10;;;;;;;35.30;19.73;;;1.90;99.90;;;;;;5068129;28;20705;-74
2022/01/27 02:27:57;;;;;;;34.00;19.58;;;1.90;99.90;;;;;;5049079;28;20204;-73
2022/01/27 02:30:43;;;;;;;37.03;21.15;;;1.80;99.90;;;;;;5044572;28;20208;-73
2022/01/27 02:33:33;;;;;;;43.08;21.58;;;1.90;99.90;;;;;;5048789;28;20583;-73
2022/01/27 02:36:19;;;;;;;34.25;19.98;;;1.90;99.90;;;;;;5051208;28;20793;-73
2022/01/27 02:39:07;;;;;;;36.50;20.15;;;1.90;99.90;;;;;;5043105;28;20321;-73
2022/01/27 02:41:58;;;;;;;38.05;20.23;;;1.90;99.90;;;;;;5043264;28;20206;-73
2022/01/27 02:44:56;;;;;;;43.97;22.08;;;1.80;99.90;;;;;;5049546;28;20232;-74
2022/01/27 02:47:42;;;;;;;42.60;21.38;;;1.70;99.90;;;;;;5051710;28;20343;-74
2022/01/27 02:50:28;;;;;;;35.67;20.20;;;1.80;99.90;;;;;;5045708;28;20287;-74
2022/01/27 02:53:14;;;;;;;35.22;19.40;;;1.80;99.90;;;;;;5049420;28;20251;-73
2022/01/27 02:56:01;;;;;;;36.28;20.92;;;1.70;99.90;;;;;;5045073;28;20218;-73
2022/01/27 02:58:46;;;;;;;33.60;20.20;;;1.80;99.90;;;;;;5048934;28;20696;-74
2022/01/27 03:01:32;;;;;;;32.75;19.05;;;1.70;99.90;;;;;;5043446;28;20587;-73
2022/01/27 03:04:19;;;;;;;34.10;18.42;;;1.60;99.90;;;;;;5051060;28;20567;-73
2022/01/27 03:07:07;;;;;;;38.00;21.25;;;1.50;99.90;;;;;;5048442;28;20205;-73
2022/01/27 03:09:54;;;;;;;36.85;21.73;;;1.40;99.90;;;;;;5051468;28;20486;-73
2022/01/27 03:12:40;;;;;;;37.72;21.23;;;1.50;99.90;;;;;;5052365;28;20196;-74
2022/01/27 03:15:26;;;;;;;36.88;21.55;;;1.40;99.90;;;;;;5051218;28;20344;-74
2022/01/27 03:18:12;;;;;;;37.35;20.65;;;1.50;99.90;;;;;;5053714;28;20349;-73
2022/01/27 03:20:58;;;;;;;33.45;18.58;;;1.50;99.90;;;;;;5042582;28;20256;-74
2022/01/27 03:23:43;;;;;;;32.28;20.35;;;1.50;99.90;;;;;;5053380;28;20244;-74
2022/01/27 03:26:29;;;;;;;34.38;22.05;;;1.50;99.90;;;;;;5056387;28;20221;-73
2022/01/27 03:29:18;;;;;;;42.38;22.08;;;1.50;99.90;;;;;;5056800;28;20361;-73
2022/01/27 03:32:04;;;;;;;33.50;18.85;;;1.50;99.90;;;;;;5060959;28;20605;-73
2022/01/27 03:34:50;;;;;;;40.25;21.63;;;1.60;99.90;;;;;;5047735;28;20295;-73
2022/01/27 03:37:35;;;;;;;33.00;19.75;;;1.60;99.90;;;;;;5052639;28;20208;-73
2022/01/27 03:40:21;;;;;;;36.70;20.98;;;1.60;99.90;;;;;;5055786;28;20708;-73
2022/01/27 03:43:09;;;;;;;32.53;20.92;;;1.60;99.90;;;;;;5060312;28;20204;-73
2022/01/27 03:45:56;;;;;;;42.25;19.67;;;1.50;99.90;;;;;;5040608;28;20241;-73
2022/01/27 03:48:42;;;;;;;37.72;21.05;;;1.50;99.90;;;;;;5044182;28;20321;-73
2022/01/27 03:51:28;;;;;;;37.63;21.52;;;1.60;99.90;;;;;;5059302;28;20274;-74
2022/01/27 03:54:14;;;;;;;37.30;19.52;;;1.50;99.90;;;;;;5064372;28;20692;-74
2022/01/27 03:57:00;;;;;;;37.28;21.73;;;1.60;99.90;;;;;;5053025;28;20196;-74
2022/01/27 03:59:46;;;;;;;34.25;20.40;;;1.60;99.90;;;;;;5051501;28;20558;-74
2022/01/27 04:02:35;;;;;;;34.05;20.27;;;1.60;99.90;;;;;;5058642;28;20678;-73
2022/01/27 04:05:21;;;;;;;34.38;19.60;;;1.60;99.90;;;;;;5039713;28;20699;-73
2022/01/27 04:08:10;;;;;;;34.47;20.67;;;1.60;99.90;;;;;;5054336;28;20209;-73
2022/01/27 04:10:56;;;;;;;37.85;19.92;;;1.50;99.90;;;;;;5048207;28;20193;-74
2022/01/27 04:13:42;;;;;;;36.70;20.75;;;1.50;99.90;;;;;;5060529;28;20204;-74
2022/01/27 04:16:28;;;;;;;32.22;21.02;;;1.50;99.90;;;;;;5055231;28;20588;-73
2022/01/27 04:19:15;;;;;;;30.08;19.70;;;1.60;99.90;;;;;;5052016;28;20212;-73
2022/01/27 04:22:00;;;;;;;33.70;19.23;;;1.60;99.90;;;;;;5053445;28;20231;-73
2022/01/27 04:24:46;;;;;;;30.45;19.42;;;1.60;99.90;;;;;;5054859;28;20220;-73
2022/01/27 04:27:34;;;;;;;31.67;18.67;;;1.70;99.90;;;;;;5048857;28;20286;-73
2022/01/27 04:30:23;;;;;;;34.80;19.85;;;1.70;99.90;;;;;;5053940;28;20246;-74
2022/01/27 04:33:09;;;;;;;32.67;19.77;;;1.70;99.90;;;;;;5048827;28;20208;-74
2022/01/27 04:35:58;;;;;;;30.45;18.15;;;1.70;99.90;;;;;;5043007;28;20784;-73
2022/01/27 04:38:50;;;;;;;34.75;19.58;;;1.80;99.90;;;;;;5055534;28;20319;-73
2022/01/27 04:41:41;;;;;;;37.20;19.77;;;1.80;99.90;;;;;;5055643;28;20216;-74
2022/01/27 04:44:33;;;;;;;35.42;19.50;;;1.70;99.90;;;;;;5062721;28;20530;-73
2022/01/27 04:47:25;;;;;;;36.20;19.73;;;1.60;99.90;;;;;;5059745;28;20208;-73
2022/01/27 04:50:11;;;;;;;37.63;20.48;;;1.60;99.90;;;;;;5056900;28;20244;-73
2022/01/27 04:52:59;;;;;;;33.83;20.38;;;1.70;99.90;;;;;;5045217;28;20217;-74
2022/01/27 04:55:44;;;;;;;36.78;20.92;;;1.70;99.90;;;;;;5052793;28;20315;-74
2022/01/27 04:58:32;;;;;;;38.10;22.08;;;1.80;99.90;;;;;;5049053;28;20495;-73
2022/01/27 05:01:20;;;;;;;36.53;20.90;;;1.70;99.90;;;;;;5052535;28;20568;-73
2022/01/27 05:04:10;;;;;;;37.10;22.00;;;1.70;99.90;;;;;;5060600;28;20647;-73
2022/01/27 05:06:56;;;;;;;39.70;20.95;;;1.60;99.90;;;;;;5062793;28;20193;-73
2022/01/27 05:09:51;;;;;;;34.00;18.85;;;1.70;99.90;;;;;;5049538;28;20202;-73
2022/01/27 05:12:42;;;;;;;36.45;21.42;;;1.70;99.90;;;;;;5055769;28;20291;-73
2022/01/27 05:15:28;;;;;;;39.78;20.52;;;1.70;99.90;;;;;;5049327;28;20224;-74
2022/01/27 05:18:15;;;;;;;42.13;22.90;;;1.50;99.90;;;;;;5061280;28;20208;-73
2022/01/27 05:21:01;;;;;;;32.80;19.70;;;1.40;99.90;;;;;;5063852;28;20260;-74
2022/01/27 05:23:46;;;;;;;41.85;20.88;;;1.40;99.90;;;;;;5051194;28;20204;-74
2022/01/27 05:26:34;;;;;;;40.67;21.77;;;1.50;99.90;;;;;;5050782;28;20632;-73
2022/01/27 05:29:20;;;;;;;41.03;20.33;;;1.50;99.90;;;;;;5051038;28;20666;-73
2022/01/27 05:32:06;;;;;;;44.47;23.10;;;1.50;99.90;;;;;;5052884;28;20287;-73
2022/01/27 05:34:52;;;;;;;35.85;20.30;;;1.40;99.90;;;;;;5044047;28;20225;-73
2022/01/27 05:37:37;;;;;;;44.67;21.15;;;1.30;99.90;;;;;;5051570;28;20201;-73
2022/01/27 05:40:23;;;;;;;41.83;21.45;;;1.40;99.90;;;;;;5049755;28;20773;-73
2022/01/27 05:43:12;;;;;;;42.03;23.15;;;1.40;99.90;;;;;;5051715;28;20268;-73
2022/01/27 05:45:58;;;;;;;33.50;19.90;;;1.30;99.90;;;;;;5048286;28;20350;-73
2022/01/27 05:48:43;;;;;;;41.15;22.30;;;1.30;99.90;;;;;;5047947;28;20669;-74
2022/01/27 05:51:29;;;;;;;36.33;20.65;;;1.30;99.90;;;;;;5046347;28;20247;-73
2022/01/27 05:54:15;;;;;;;40.25;21.05;;;1.30;99.90;;;;;;5062557;28;20260;-73
2022/01/27 05:57:01;;;;;;;40.83;21.55;;;1.20;99.90;;;;;;5045794;28;20769;-73
2022/01/27 05:59:48;;;;;;;41.78;21.80;;;1.30;99.90;;;;;;5047007;28;20555;-74
2022/01/27 06:02:34;;;;;;;40.13;21.75;;;1.40;99.90;;;;;;5050417;28;20204;-74
2022/01/27 06:05:19;;;;;;;40.58;20.77;;;1.40;99.90;;;;;;5059105;28;20335;-73
2022/01/27 06:08:06;;;;;;;38.38;20.38;;;1.40;99.90;;;;;;5050964;28;20200;-74
2022/01/27 06:10:51;;;;;;;43.10;21.25;;;1.40;99.90;;;;;;5051843;28;20247;-74
2022/01/27 06:13:37;;;;;;;42.40;22.67;;;1.40;99.90;;;;;;5048417;28;20316;-74
2022/01/27 06:16:24;;;;;;;38.78;20.38;;;1.40;99.90;;;;;;5043087;28;20270;-74
2022/01/27 06:19:10;;;;;;;47.55;22.77;;;1.40;99.90;;;;;;5056995;28;20635;-74
2022/01/27 06:21:56;;;;;;;36.17;18.50;;;1.40;99.90;;;;;;5052367;28;20583;-74
2022/01/27 06:24:41;;;;;;;43.78;20.55;;;1.40;99.90;;;;;;5044045;28;20307;-74
2022/01/27 06:27:27;;;;;;;36.58;20.52;;;1.50;99.90;;;;;;5040157;28;20200;-73
2022/01/27 06:30:13;;;;;;;34.05;19.95;;;1.30;99.90;;;;;;5048887;28;20201;-74
2022/01/27 06:33:00;;;;;;;46.20;23.17;;;1.40;99.90;;;;;;5051702;28;20200;-73
2022/01/27 06:35:46;;;;;;;40.03;22.20;;;1.50;99.90;;;;;;5047507;28;20262;-73
2022/01/27 06:38:32;;;;;;;39.17;21.33;;;1.50;99.90;;;;;;5052707;28;20302;-73
2022/01/27 06:41:17;;;;;;;39.63;21.50;;;1.50;99.90;;;;;;5049553;28;20710;-73
2022/01/27 06:44:03;;;;;;;35.83;22.13;;;1.50;99.90;;;;;;5053048;28;20847;-73
2022/01/27 06:46:49;;;;;;;37.83;19.55;;;1.50;99.90;;;;;;5047013;28;20204;-73
2022/01/27 06:49:36;;;;;;;41.30;20.45;;;1.50;99.90;;;;;;5054539;28;20314;-73
2022/01/27 06:52:24;;;;;;;37.00;19.45;;;1.50;99.90;;;;;;5049358;28;20221;-73
2022/01/27 06:55:11;;;;;;;36.42;20.65;;;1.50;99.90;;;;;;5045637;28;20225;-73
2022/01/27 06:57:57;;;;;;;43.58;19.58;;;1.50;99.90;;;;;;5046441;28;20267;-73
2022/01/27 07:00:43;;;;;;;32.10;18.33;;;1.60;99.90;;;;;;5051206;28;20224;-73
2022/01/27 07:03:28;;;;;;;36.58;18.10;;;1.70;99.90;;;;;;5052645;28;20320;-72
2022/01/27 07:06:15;;;;;;;36.58;19.15;;;1.60;99.90;;;;;;5045692;28;20258;-73
2022/01/27 07:09:01;;;;;;;38.80;18.23;;;1.60;99.90;;;;;;5060829;28;20204;-74
2022/01/27 07:11:47;;;;;;;34.13;19.02;;;1.70;99.90;;;;;;5049026;28;20200;-73
2022/01/27 07:14:33;;;;;;;33.28;19.20;;;1.70;99.90;;;;;;5042811;28;20217;-73
2022/01/27 07:17:20;;;;;;;34.75;19.70;;;1.70;99.90;;;;;;5049237;28;20207;-74
2022/01/27 07:20:07;;;;;;;35.55;19.00;;;1.60;99.90;;;;;;5047174;28;20279;-73
2022/01/27 07:22:55;;;;;;;37.40;18.70;;;1.60;99.90;;;;;;5048711;28;20209;-74
2022/01/27 07:25:41;;;;;;;30.17;17.00;;;1.60;99.90;;;;;;5049476;28;20217;-74
2022/01/27 07:28:26;;;;;;;31.38;17.75;;;1.60;99.90;;;;;;5059869;28;20204;-73
2022/01/27 07:31:12;;;;;;;28.20;17.63;;;1.70;99.90;;;;;;5054941;28;20279;-73
2022/01/27 07:33:58;;;;;;;33.65;16.63;;;1.70;99.90;;;;;;5053605;28;20239;-73
2022/01/27 07:36:44;;;;;;;35.78;18.13;;;1.70;99.90;;;;;;5048656;28;20221;-73
2022/01/27 07:39:31;;;;;;;35.70;17.33;;;1.60;99.90;;;;;;5047106;28;20201;-74
2022/01/27 07:42:17;;;;;;;36.10;17.63;;;1.50;99.90;;;;;;5043667;28;20225;-73
2022/01/27 07:45:03;;;;;;;35.05;16.25;;;1.50;99.90;;;;;;5070681;22;20236;-74
2022/01/27 07:47:49;;;;;;;33.20;19.30;;;1.50;99.90;;;;;;5069375;28;20207;-74
2022/01/27 07:50:34;;;;;;;32.95;17.83;;;1.60;99.90;;;;;;5069728;28;20204;-74
2022/01/27 07:53:21;;;;;;;33.20;18.30;;;1.50;99.90;;;;;;5066951;28;20208;-74
2022/01/27 07:56:08;;;;;;;35.60;18.67;;;1.30;99.90;;;;;;5050942;28;20245;-74
2022/01/27 07:58:54;;;;;;;41.38;19.55;;;1.40;99.90;;;;;;5051544;28;20203;-73
2022/01/27 08:01:40;;;;;;;34.55;18.65;;;1.30;99.90;;;;;;5058257;28;20700;-74
2022/01/27 08:04:26;;;;;;;35.78;17.38;;;1.20;99.90;;;;;;5049417;28;20205;-70
2022/01/27 08:07:11;;;;;;;34.40;17.98;;;1.20;99.90;;;;;;5052605;28;20243;-73
2022/01/27 08:09:57;;;;;;;29.17;15.60;;;1.30;99.90;;;;;;5049330;28;20218;-73
2022/01/27 08:12:45;;;;;;;33.97;17.58;;;1.30;99.90;;;;;;5048621;28;20197;-74
2022/01/27 08:15:30;;;;;;;26.65;17.08;;;1.30;99.90;;;;;;5044662;28;20777;-73
2022/01/27 08:18:16;;;;;;;31.80;15.88;;;1.20;99.90;;;;;;5052898;28;20219;-73
2022/01/27 08:21:03;;;;;;;28.02;16.50;;;1.20;99.90;;;;;;5055263;28;20224;-74
2022/01/27 08:23:48;;;;;;;31.60;16.48;;;1.20;99.90;;;;;;5042934;28;20206;-74
2022/01/27 08:26:38;;;;;;;28.17;16.13;;;1.20;99.90;;;;;;5048918;28;20720;-74
2022/01/27 08:29:31;;;;;;;37.88;18.35;;;1.10;99.90;;;;;;5053644;28;20575;-72
2022/01/27 08:32:27;;;;;;;31.45;17.40;;;1.10;99.90;;;;;;5043938;28;20197;-73
2022/01/27 08:35:13;;;;;;;34.55;18.83;;;1.10;99.90;;;;;;5043177;28;20232;-73
2022/01/27 08:37:59;;;;;;;40.63;17.90;;;1.30;99.90;;;;;;5051311;28;20200;-74
2022/01/27 08:40:44;;;;;;;30.67;16.92;;;1.30;99.90;;;;;;5046682;28;20239;-73
2022/01/27 08:43:30;;;;;;;34.22;16.75;;;1.20;99.90;;;;;;5050330;28;20563;-72
2022/01/27 08:46:18;;;;;;;31.70;17.38;;;1.20;99.90;;;;;;5047549;28;20232;-71
2022/01/27 08:49:03;;;;;;;32.85;17.67;;;1.20;99.90;;;;;;5039574;28;20536;-73
2022/01/27 08:51:49;;;;;;;34.55;16.30;;;1.20;99.90;;;;;;5050036;28;20252;-73
2022/01/27 08:54:34;;;;;;;26.90;15.15;;;1.30;99.90;;;;;;5046869;28;20205;-73
2022/01/27 08:57:20;;;;;;;32.70;16.35;;;1.30;99.90;;;;;;5055079;28;20205;-73
2022/01/27 09:00:08;;;;;;;35.65;17.27;;;1.20;99.90;;;;;;5049400;28;20197;-74
2022/01/27 09:02:56;;;;;;;35.40;15.82;;;1.10;99.90;;;;;;5056105;28;20221;-74
2022/01/27 09:05:42;;;;;;;33.85;18.27;;;1.10;99.90;;;;;;5040046;28;20236;-73
2022/01/27 09:08:28;;;;;;;35.88;17.98;;;1.10;99.90;;;;;;5052231;28;20595;-72
2022/01/27 09:11:14;;;;;;;35.47;17.25;;;1.00;99.90;;;;;;5050692;28;20204;-73
2022/01/27 09:14:00;;;;;;;36.40;17.05;;;1.00;99.90;;;;;;5040092;28;20203;-74
2022/01/27 09:16:46;;;;;;;35.75;17.80;;;1.10;99.90;;;;;;5046800;28;20220;-74
2022/01/27 09:19:37;;;;;;;41.00;17.52;;;1.10;99.90;;;;;;5056565;28;20255;-73
2022/01/27 09:22:23;;;;;;;39.33;19.40;;;1.00;99.90;;;;;;5055003;28;20224;-73
2022/01/27 09:25:15;;;;;;;40.05;19.67;;;1.00;99.90;;;;;;5047887;28;20704;-74
2022/01/27 09:28:03;;;;;;;46.50;18.60;;;0.90;99.90;;;;;;5044730;28;20205;-74
2022/01/27 09:30:48;;;;;;;35.67;18.83;;;0.80;99.90;;;;;;5049127;28;20283;-73
2022/01/27 09:33:34;;;;;;;35.42;17.75;;;0.90;99.90;;;;;;5056066;28;20205;-73
2022/01/27 09:36:21;;;;;;;41.47;17.90;;;0.90;99.90;;;;;;5051339;28;20224;-73
2022/01/27 09:39:07;;;;;;;41.42;19.10;;;0.90;99.90;;;;;;5052583;28;20577;-73
2022/01/27 09:41:56;;;;;;;35.92;18.65;;;0.70;99.90;;;;;;5047325;28;20227;-75
2022/01/27 09:44:44;;;;;;;37.78;17.42;;;0.80;99.90;;;;;;5043542;28;20204;-72
2022/01/27 09:47:32;;;;;;;35.70;17.02;;;0.80;99.90;;;;;;5050406;28;20196;-73
2022/01/27 09:50:27;;;;;;;38.95;18.00;;;0.80;99.90;;;;;;5060840;28;20207;-76
2022/01/27 09:53:14;;;;;;;35.22;18.48;;;0.80;99.90;;;;;;5052511;28;22315;-75
2022/01/27 09:56:00;;;;;;;35.85;18.30;;;0.90;99.90;;;;;;5060052;28;20225;-75
2022/01/27 09:58:46;;;;;;;31.40;16.08;;;1.00;99.90;;;;;;5052551;28;20574;-74
2022/01/27 10:01:32;;;;;;;34.63;16.92;;;1.00;99.90;;;;;;5054753;28;20209;-73
2022/01/27 10:04:17;;;;;;;32.30;15.35;;;1.00;99.90;;;;;;5051453;28;20251;-75
2022/01/27 10:07:03;;;;;;;31.17;16.75;;;1.00;99.90;;;;;;5056321;28;20379;-73
2022/01/27 10:10:01;;;;;;;34.92;16.20;;;1.00;99.90;;;;;;5055889;28;20196;-75
2022/01/27 10:12:51;;;;;;;37.35;16.33;;;1.10;99.90;;;;;;5053573;28;20197;-74
2022/01/27 10:15:38;;;;;;;29.33;14.80;;;1.10;99.90;;;;;;5054044;28;20328;-74
2022/01/27 10:18:26;;;;;;;31.40;15.90;;;0.90;99.90;;;;;;5048954;28;20193;-73
2022/01/27 10:21:13;;;;;;;30.52;14.90;;;0.90;99.90;;;;;;5050305;28;20575;-75
2022/01/27 10:24:15;;;;;;;27.27;13.52;;;1.00;99.90;;;;;;5054466;28;20207;-74
2022/01/27 10:27:28;;;;;;;28.27;14.18;;;1.10;99.90;;;;;;5052960;28;20335;-74
2022/01/27 10:33:28;;;;;;;36.28;16.63;;;1.00;99.90;;;;;;5052895;28;20555;-73
2022/01/27 10:36:20;;;;;;;28.55;13.80;;;1.00;99.90;;;;;;5051099;28;20225;-75
2022/01/27 10:39:08;;;;;;;29.70;14.50;;;0.90;99.90;;;;;;5048617;28;20201;-75
2022/01/27 10:41:59;;;;;;;24.65;13.30;;;1.00;99.90;;;;;;5058908;28;20323;-74
2022/01/27 10:44:48;;;;;;;37.75;14.52;;;1.00;99.90;;;;;;5046170;28;20682;-74
2022/01/27 10:47:39;;;;;;;32.83;14.90;;;1.10;99.90;;;;;;5053337;28;20217;-75
2022/01/27 10:50:25;;;;;;;28.73;13.90;;;1.10;99.90;;;;;;5053101;28;20197;-73
2022/01/27 10:53:11;;;;;;;31.65;14.10;;;1.20;99.90;;;;;;5045357;28;20205;-73
2022/01/27 10:56:07;;;;;;;29.48;15.60;;;1.20;99.90;;;;;;5060299;28;20227;-75
2022/01/27 10:58:54;;;;;;;27.40;12.73;;;1.10;99.90;;;;;;5050308;28;20222;-75
2022/01/27 11:01:43;;;;;;;28.48;13.85;;;1.20;99.90;;;;;;5057744;28;20200;-75
2022/01/27 11:04:34;;;;;;;26.95;13.02;;;1.20;99.90;;;;;;5043981;28;20667;-74
2022/01/27 11:07:24;;;;;;;30.08;13.10;;;1.30;99.90;;;;;;5049004;28;20267;-75
2022/01/27 11:10:10;;;;;;;27.55;14.45;;;1.30;99.90;;;;;;5058019;28;20204;-74
2022/01/27 11:12:58;;;;;;;24.85;12.48;;;1.30;99.90;;;;;;5046884;28;20200;-74
2022/01/27 11:15:45;;;;;;;27.15;13.38;;;1.20;99.90;;;;;;5057578;28;20220;-75
2022/01/27 11:18:33;;;;;;;30.85;14.35;;;1.20;99.90;;;;;;5052612;28;20205;-75
2022/01/27 11:21:30;;;;;;;28.05;11.90;;;1.30;99.90;;;;;;5048280;28;20216;-75
2022/01/27 11:24:24;;;;;;;29.30;13.20;;;1.30;99.90;;;;;;5053841;28;20678;-75
2022/01/27 11:27:14;;;;;;;26.98;13.57;;;1.30;99.90;;;;;;5047528;28;20224;-73
2022/01/27 11:30:05;;;;;;;27.63;13.88;;;1.30;99.90;;;;;;5061410;28;20254;-72
2022/01/27 11:32:56;;;;;;;27.05;13.57;;;1.30;99.90;;;;;;5048634;28;20204;-74
2022/01/27 11:35:43;;;;;;;22.85;12.35;;;1.40;99.90;;;;;;5060100;28;20240;-74
2022/01/27 11:38:29;;;;;;;33.25;13.82;;;1.40;99.90;;;;;;5057696;28;20321;-75
2022/01/27 11:41:40;;;;;;;31.40;14.93;;;1.30;99.90;;;;;;5050293;28;20600;-75
2022/01/27 11:44:28;;;;;;;30.63;13.98;;;1.30;99.90;;;;;;5054753;28;20200;-71
2022/01/27 11:47:20;;;;;;;31.17;13.82;;;1.30;99.90;;;;;;5048152;28;20225;-72
2022/01/27 11:50:12;;;;;;;29.10;14.85;;;1.20;99.90;;;;;;5044467;28;20581;-74
2022/01/27 11:53:00;;;;;;;24.70;13.43;;;1.30;99.90;;;;;;5047878;28;20588;-73
2022/01/27 11:55:47;;;;;;;28.20;14.30;;;1.40;99.90;;;;;;5051735;28;20785;-75
2022/01/27 11:58:46;;;;;;;33.17;16.10;;;1.40;99.90;;;;;;5050302;28;20221;-74
2022/01/27 12:01:34;;;;;;;32.40;17.70;;;1.30;99.90;;;;;;5041855;28;20673;-74
2022/01/27 12:04:27;;;;;;;29.40;15.68;;;1.30;99.90;;;;;;5053326;28;20594;-75
2022/01/27 12:07:12;;;;;;;36.67;17.85;;;1.30;99.90;;;;;;5053954;28;20292;-74
2022/01/27 12:09:59;;;;;;;35.00;17.35;;;1.30;99.90;;;;;;5047113;28;20204;-74
2022/01/27 12:12:45;;;;;;;36.80;19.85;;;1.40;99.90;;;;;;5050141;28;20670;-74
2022/01/27 12:15:31;;;;;;;44.45;18.70;;;1.40;99.90;;;;;;5046959;28;20224;-74
2022/01/27 12:18:36;;;;;;;33.70;19.00;;;1.40;99.90;;;;;;5047056;28;20200;-74
2022/01/27 12:21:32;;;;;;;36.13;18.00;;;1.50;99.90;;;;;;5051654;28;20193;-74
2022/01/27 12:24:27;;;;;;;38.15;18.35;;;1.60;99.90;;;;;;5049874;28;20212;-75
2022/01/27 12:27:18;;;;;;;38.50;20.05;;;1.60;99.90;;;;;;5051387;28;20667;-73
2022/01/27 12:30:07;;;;;;;36.30;17.67;;;1.70;99.90;;;;;;5056266;28;20331;-72
2022/01/27 12:32:55;;;;;;;38.67;19.30;;;1.60;99.90;;;;;;5053391;28;20666;-73
2022/01/27 12:35:41;;;;;;;38.75;18.13;;;1.70;99.90;;;;;;5046138;28;20222;-73
2022/01/27 12:38:26;;;;;;;44.88;19.55;;;1.60;99.90;;;;;;5042467;28;20213;-73
2022/01/27 12:41:12;;;;;;;48.15;20.30;;;1.70;99.90;;;;;;5044619;28;20212;-74
2022/01/27 12:44:09;;;;;;;38.80;20.00;;;1.60;99.90;;;;;;5039593;28;20300;-74
2022/01/27 12:47:14;;;;;;;42.55;20.35;;;1.50;99.90;;;;;;5045589;28;20772;-75
2022/01/27 12:50:08;;;;;;;52.88;22.05;;;1.50;99.90;;;;;;5046255;28;20195;-74
2022/01/27 12:52:59;;;;;;;46.22;21.95;;;1.60;99.90;;;;;;5043588;28;20205;-73
2022/01/27 12:55:46;;;;;;;39.30;20.90;;;1.60;99.90;;;;;;5047110;28;20348;-70
2022/01/27 12:58:33;;;;;;;42.55;20.00;;;1.60;99.90;;;;;;5044580;28;20354;-73
2022/01/27 13:01:20;;;;;;;50.63;21.10;;;1.80;99.90;;;;;;5042101;28;20204;-73
2022/01/27 13:04:06;;;;;;;44.38;21.05;;;1.80;99.90;;;;;;5046480;28;20309;-74
2022/01/27 13:06:56;;;;;;;43.67;18.75;;;1.90;99.90;;;;;;5045982;28;20240;-72
2022/01/27 13:09:43;;;;;;;40.70;18.15;;;1.80;99.90;;;;;;5046752;28;20225;-72
2022/01/27 13:12:34;;;;;;;47.47;20.60;;;1.80;99.90;;;;;;5046298;28;20198;-75
2022/01/27 13:15:23;;;;;;;49.60;21.33;;;1.80;99.90;;;;;;5045596;28;20229;-73
2022/01/27 13:18:15;;;;;;;49.40;22.27;;;1.80;99.90;;;;;;5041884;28;20340;-74
2022/01/27 13:21:03;;;;;;;49.67;21.88;;;1.80;99.90;;;;;;5039878;28;20209;-74
2022/01/27 13:24:01;;;;;;;37.50;20.27;;;1.80;99.90;;;;;;5043800;28;20230;-74
2022/01/27 13:26:49;;;;;;;41.60;20.17;;;1.80;99.90;;;;;;5050362;28;20294;-74
2022/01/27 13:29:42;;;;;;;42.83;21.58;;;1.80;99.90;;;;;;5052652;28;20196;-74
2022/01/27 13:32:28;;;;;;;39.10;19.55;;;1.80;99.90;;;;;;5050349;28;20205;-74
2022/01/27 13:35:18;;;;;;;42.33;21.95;;;1.80;99.90;;;;;;5047062;28;20225;-74
2022/01/27 13:38:21;;;;;;;44.88;23.42;;;1.70;99.90;;;;;;5050626;28;20206;-74
2022/01/27 13:41:18;;;;;;;42.60;22.60;;;1.70;99.90;;;;;;5049108;28;20263;-72
2022/01/27 13:44:07;;;;;;;42.20;22.83;;;1.70;99.90;;;;;;5047407;28;20340;-73
2022/01/27 13:46:57;;;;;;;43.95;21.13;;;1.80;99.90;;;;;;5075911;22;20766;-74
2022/01/27 13:49:42;;;;;;;50.70;20.05;;;1.80;99.90;;;;;;5067605;28;20688;-74
2022/01/27 13:52:40;;;;;;;48.33;23.35;;;1.80;99.90;;;;;;5067102;28;20691;-73
2022/01/27 13:55:26;;;;;;;41.92;21.17;;;1.80;99.90;;;;;;5063213;28;20200;-74
2022/01/27 13:58:11;;;;;;;42.08;22.20;;;1.80;99.90;;;;;;5052985;28;20209;-74
2022/01/27 14:01:05;;;;;;;44.35;21.95;;;1.80;99.90;;;;;;5049996;28;20202;-73
2022/01/27 14:03:51;;;;;;;42.65;21.70;;;1.80;99.90;;;;;;5045594;28;20210;-73
2022/01/27 14:06:52;;;;;;;42.00;19.80;;;1.90;99.90;;;;;;5059996;28;20730;-74
2022/01/27 14:09:42;;;;;;;40.50;21.73;;;1.90;99.90;;;;;;5048700;28;20559;-73
2022/01/27 14:12:45;;;;;;;38.80;20.85;;;1.90;99.90;;;;;;5052789;28;20205;-74
2022/01/27 14:15:35;;;;;;;41.00;21.40;;;1.90;99.90;;;;;;5054566;28;20200;-73
2022/01/27 14:18:22;;;;;;;47.53;23.45;;;1.90;99.90;;;;;;5050660;28;20201;-73
2022/01/27 14:21:10;;;;;;;39.55;21.33;;;1.90;99.90;;;;;;5050743;28;20200;-74
2022/01/27 14:24:09;;;;;;;43.42;20.58;;;1.90;99.90;;;;;;5054188;28;20357;-74
2022/01/27 14:27:00;;;;;;;42.15;21.90;;;1.90;99.90;;;;;;5051541;28;20220;-73
2022/01/27 14:29:46;;;;;;;43.38;22.02;;;1.90;99.90;;;;;;5044356;28;20295;-73
2022/01/27 14:32:33;;;;;;;48.22;23.05;;;2.00;99.90;;;;;;5051247;28;20218;-73
2022/01/27 14:35:20;;;;;;;48.15;23.60;;;2.00;99.90;;;;;;5051680;28;20201;-74
2022/01/27 14:38:06;;;;;;;42.05;22.48;;;2.00;99.90;;;;;;5049861;28;20205;-74
2022/01/27 14:40:52;;;;;;;43.70;20.60;;;2.00;99.90;;;;;;5045592;28;20247;-75
2022/01/27 14:43:40;;;;;;;42.78;19.67;;;2.00;99.90;;;;;;5050261;28;20228;-74
2022/01/27 14:46:30;;;;;;;43.40;22.92;;;2.00;99.90;;;;;;5050662;28;20359;-73